sensor_id;sensor_type;location;lat;lon;timestamp;temperature;humidity
5358;DHT22;2702;51.014;7.170;2022-07-29T00:00:45;20.00;99.90
5358;DHT22;2702;51.014;7.170;2022-07-29T00:03:12;20.00;99.90
5358;DHT22;2702;51.014;7.170;2022-07-29T00:05:39;20.00;99.90
5358;DHT22;2702;51.014;7.170;2022-07-29T00:08:06;20.00;99.90
5358;DHT22;2702;51.014;7.170;2022-07-29T00:10:32;20.00;99.90
5358;DHT22;2702;51.014;7.170;2022-07-29T00:12:58;20.00;99.90
5358;DHT22;2702;51.014;7.170;2022-07-29T00:15:24;19.90;99.90
5358;DHT22;2702;51.014;7.170;2022-07-29T00:17:50;19.90;99.90
5358;DHT22;2702;51.014;7.170;2022-07-29T00:20:16;19.90;99.90
5358;DHT22;2702;51.014;7.170;2022-07-29T00:22:42;19.90;99.90
5358;DHT22;2702;51.014;7.170;2022-07-29T00:25:08;20.00;99.90
5358;DHT22;2702;51.014;7.170;2022-07-29T00:27:35;20.10;99.90
5358;DHT22;2702;51.014;7.170;2022-07-29T00:30:02;20.00;99.90
5358;DHT22;2702;51.014;7.170;2022-07-29T00:32:28;20.00;99.90
5358;DHT22;2702;51.014;7.170;2022-07-29T00:34:54;20.00;99.90
5358;DHT22;2702;51.014;7.170;2022-07-29T00:37:38;20.00;99.90
5358;DHT22;2702;51.014;7.170;2022-07-29T00:40:05;20.00;99.90
5358;DHT22;2702;51.014;7.170;2022-07-29T00:42:40;20.00;99.90
5358;DHT22;2702;51.014;7.170;2022-07-29T00:45:06;20.10;99.90
5358;DHT22;2702;51.014;7.170;2022-07-29T00:47:32;20.10;99.90
5358;DHT22;2702;51.014;7.170;2022-07-29T00:49:58;20.10;99.90
5358;DHT22;2702;51.014;7.170;2022-07-29T00:52:24;20.10;99.90
5358;DHT22;2702;51.014;7.170;2022-07-29T00:54:50;20.20;99.90
5358;DHT22;2702;51.014;7.170;2022-07-29T00:57:16;20.20;99.90
5358;DHT22;2702;51.014;7.170;2022-07-29T00:59:42;20.20;99.90
5358;DHT22;2702;51.014;7.170;2022-07-29T01:02:08;20.20;99.90
5358;DHT22;2702;51.014;7.170;2022-07-29T01:04:34;20.20;99.90
5358;DHT22;2702;51.014;7.170;2022-07-29T01:07:03;20.30;99.90
5358;DHT22;2702;51.014;7.170;2022-07-29T01:09:31;20.20;99.90
5358;DHT22;2702;51.014;7.170;2022-07-29T01:11:59;20.20;99.90
5358;DHT22;2702;51.014;7.170;2022-07-29T01:14:26;20.20;99.90
5358;DHT22;2702;51.014;7.170;2022-07-29T01:17:07;20.20;99.90
5358;DHT22;2702;51.014;7.170;2022-07-29T01:22:33;20.10;99.90
5358;DHT22;2702;51.014;7.170;2022-07-29T01:25:12;20.10;99.90
5358;DHT22;2702;51.014;7.170;2022-07-29T01:30:49;20.10;99.90
5358;DHT22;2702;51.014;7.170;2022-07-29T01:33:17;20.10;99.90
5358;DHT22;2702;51.014;7.170;2022-07-29T01:36:10;20.10;99.90
5358;DHT22;2702;51.014;7.170;2022-07-29T01:38:38;20.10;99.90
5358;DHT22;2702;51.014;7.170;2022-07-29T01:41:09;20.10;99.90
5358;DHT22;2702;51.014;7.170;2022-07-29T01:43:56;20.10;99.90
5358;DHT22;2702;51.014;7.170;2022-07-29T01:46:49;20.10;99.90
5358;DHT22;2702;51.014;7.170;2022-07-29T01:49:21;20.10;99.90
5358;DHT22;2702;51.014;7.170;2022-07-29T01:51:53;20.00;99.90
5358;DHT22;2702;51.014;7.170;2022-07-29T01:54:34;19.90;99.90
5358;DHT22;2702;51.014;7.170;2022-07-29T01:57:02;20.00;99.90
5358;DHT22;2702;51.014;7.170;2022-07-29T01:59:30;19.90;99.90
5358;DHT22;2702;51.014;7.170;2022-07-29T02:01:58;19.90;99.90
5358;DHT22;2702;51.014;7.170;2022-07-29T02:04:27;19.90;99.90
5358;DHT22;2702;51.014;7.170;2022-07-29T02:06:55;19.90;99.90
5358;DHT22;2702;51.014;7.170;2022-07-29T02:09:24;19.80;99.90
5358;DHT22;2702;51.014;7.170;2022-07-29T02:11:53;19.80;99.90
5358;DHT22;2702;51.014;7.170;2022-07-29T02:14:22;19.80;99.90
5358;DHT22;2702;51.014;7.170;2022-07-29T02:16:51;19.80;99.90
5358;DHT22;2702;51.014;7.170;2022-07-29T02:19:22;19.80;99.90
5358;DHT22;2702;51.014;7.170;2022-07-29T02:21:51;19.80;99.90
5358;DHT22;2702;51.014;7.170;2022-07-29T02:24:20;19.80;99.90
5358;DHT22;2702;51.014;7.170;2022-07-29T02:26:47;19.80;99.90
5358;DHT22;2702;51.014;7.170;2022-07-29T02:29:16;19.80;99.90
5358;DHT22;2702;51.014;7.170;2022-07-29T02:31:44;19.80;99.90
5358;DHT22;2702;51.014;7.170;2022-07-29T02:34:13;19.80;99.90
5358;DHT22;2702;51.014;7.170;2022-07-29T02:36:43;19.80;99.90
5358;DHT22;2702;51.014;7.170;2022-07-29T02:39:11;19.80;99.90
5358;DHT22;2702;51.014;7.170;2022-07-29T02:41:52;19.80;99.90
5358;DHT22;2702;51.014;7.170;2022-07-29T02:44:20;19.90;99.90
5358;DHT22;2702;51.014;7.170;2022-07-29T02:49:41;19.90;99.90
5358;DHT22;2702;51.014;7.170;2022-07-29T02:52:12;19.80;99.90
5358;DHT22;2702;51.014;7.170;2022-07-29T02:54:54;19.80;99.90
5358;DHT22;2702;51.014;7.170;2022-07-29T02:57:43;19.90;99.90
5358;DHT22;2702;51.014;7.170;2022-07-29T03:00:10;19.90;99.90
5358;DHT22;2702;51.014;7.170;2022-07-29T03:02:45;19.80;99.90
5358;DHT22;2702;51.014;7.170;2022-07-29T03:05:20;19.80;99.90
5358;DHT22;2702;51.014;7.170;2022-07-29T03:07:55;19.80;99.90
5358;DHT22;2702;51.014;7.170;2022-07-29T03:10:25;19.70;99.90
5358;DHT22;2702;51.014;7.170;2022-07-29T03:12:51;19.70;99.90
5358;DHT22;2702;51.014;7.170;2022-07-29T03:15:18;19.60;99.90
5358;DHT22;2702;51.014;7.170;2022-07-29T03:17:44;19.70;99.90
5358;DHT22;2702;51.014;7.170;2022-07-29T03:20:12;19.70;99.90
5358;DHT22;2702;51.014;7.170;2022-07-29T03:22:40;19.60;99.90
5358;DHT22;2702;51.014;7.170;2022-07-29T03:25:12;19.70;99.90
5358;DHT22;2702;51.014;7.170;2022-07-29T03:27:39;19.60;99.90
5358;DHT22;2702;51.014;7.170;2022-07-29T03:30:07;19.60;99.90
5358;DHT22;2702;51.014;7.170;2022-07-29T03:32:34;19.50;99.90
5358;DHT22;2702;51.014;7.170;2022-07-29T03:35:00;19.50;99.90
5358;DHT22;2702;51.014;7.170;2022-07-29T03:37:26;19.30;99.90
5358;DHT22;2702;51.014;7.170;2022-07-29T03:39:53;19.10;99.90
5358;DHT22;2702;51.014;7.170;2022-07-29T03:42:23;19.10;99.90
5358;DHT22;2702;51.014;7.170;2022-07-29T03:44:50;19.00;99.90
5358;DHT22;2702;51.014;7.170;2022-07-29T03:47:20;18.80;99.90
5358;DHT22;2702;51.014;7.170;2022-07-29T03:49:50;18.60;99.90
5358;DHT22;2702;51.014;7.170;2022-07-29T03:52:17;18.70;99.90
5358;DHT22;2702;51.014;7.170;2022-07-29T03:54:44;18.70;99.90
5358;DHT22;2702;51.014;7.170;2022-07-29T03:57:11;18.40;99.90
5358;DHT22;2702;51.014;7.170;2022-07-29T03:59:38;18.40;99.90
5358;DHT22;2702;51.014;7.170;2022-07-29T04:02:05;18.50;99.90
5358;DHT22;2702;51.014;7.170;2022-07-29T04:04:34;18.40;99.90
5358;DHT22;2702;51.014;7.170;2022-07-29T04:07:00;18.30;99.90
5358;DHT22;2702;51.014;7.170;2022-07-29T04:09:27;18.10;99.90
5358;DHT22;2702;51.014;7.170;2022-07-29T04:11:52;18.10;99.90
5358;DHT22;2702;51.014;7.170;2022-07-29T04:14:19;18.10;99.90
5358;DHT22;2702;51.014;7.170;2022-07-29T04:16:46;18.00;99.90
5358;DHT22;2702;51.014;7.170;2022-07-29T04:19:12;17.90;99.90
5358;DHT22;2702;51.014;7.170;2022-07-29T04:21:39;17.90;99.90
5358;DHT22;2702;51.014;7.170;2022-07-29T04:24:05;17.90;99.90
5358;DHT22;2702;51.014;7.170;2022-07-29T04:26:31;17.90;99.90
5358;DHT22;2702;51.014;7.170;2022-07-29T04:28:57;17.90;99.90
5358;DHT22;2702;51.014;7.170;2022-07-29T04:31:23;17.80;99.90
5358;DHT22;2702;51.014;7.170;2022-07-29T04:33:49;17.70;99.90
5358;DHT22;2702;51.014;7.170;2022-07-29T04:36:15;17.60;99.90
5358;DHT22;2702;51.014;7.170;2022-07-29T04:38:41;17.60;99.90
5358;DHT22;2702;51.014;7.170;2022-07-29T04:41:07;17.60;99.90
5358;DHT22;2702;51.014;7.170;2022-07-29T04:43:34;17.70;99.90
5358;DHT22;2702;51.014;7.170;2022-07-29T04:46:05;17.70;99.90
5358;DHT22;2702;51.014;7.170;2022-07-29T04:48:31;17.70;99.90
5358;DHT22;2702;51.014;7.170;2022-07-29T04:50:58;17.80;99.90
5358;DHT22;2702;51.014;7.170;2022-07-29T04:53:24;17.80;99.90
5358;DHT22;2702;51.014;7.170;2022-07-29T04:55:51;17.80;99.90
5358;DHT22;2702;51.014;7.170;2022-07-29T04:58:17;17.80;99.90
5358;DHT22;2702;51.014;7.170;2022-07-29T05:00:43;17.80;99.90
5358;DHT22;2702;51.014;7.170;2022-07-29T05:03:09;17.70;99.90
5358;DHT22;2702;51.014;7.170;2022-07-29T05:05:35;17.70;99.90
5358;DHT22;2702;51.014;7.170;2022-07-29T05:08:00;17.60;99.90
5358;DHT22;2702;51.014;7.170;2022-07-29T05:10:26;17.50;99.90
5358;DHT22;2702;51.014;7.170;2022-07-29T05:12:52;17.50;99.90
5358;DHT22;2702;51.014;7.170;2022-07-29T05:15:19;17.50;99.90
5358;DHT22;2702;51.014;7.170;2022-07-29T05:17:45;17.50;99.90
5358;DHT22;2702;51.014;7.170;2022-07-29T05:20:11;17.50;99.90
5358;DHT22;2702;51.014;7.170;2022-07-29T05:22:37;17.50;99.90
5358;DHT22;2702;51.014;7.170;2022-07-29T05:25:03;17.60;99.90
5358;DHT22;2702;51.014;7.170;2022-07-29T05:27:29;17.60;99.90
5358;DHT22;2702;51.014;7.170;2022-07-29T05:29:55;17.60;99.90
5358;DHT22;2702;51.014;7.170;2022-07-29T05:32:20;17.70;99.90
5358;DHT22;2702;51.014;7.170;2022-07-29T05:34:46;17.70;99.90
5358;DHT22;2702;51.014;7.170;2022-07-29T05:37:12;17.80;99.90
5358;DHT22;2702;51.014;7.170;2022-07-29T05:39:39;17.80;99.90
5358;DHT22;2702;51.014;7.170;2022-07-29T05:42:09;17.90;99.90
5358;DHT22;2702;51.014;7.170;2022-07-29T05:44:39;17.90;99.90
5358;DHT22;2702;51.014;7.170;2022-07-29T05:47:05;18.00;99.90
5358;DHT22;2702;51.014;7.170;2022-07-29T05:49:32;18.10;99.90
5358;DHT22;2702;51.014;7.170;2022-07-29T05:51:58;18.20;99.90
5358;DHT22;2702;51.014;7.170;2022-07-29T05:54:24;18.20;99.90
5358;DHT22;2702;51.014;7.170;2022-07-29T05:56:51;18.40;99.90
5358;DHT22;2702;51.014;7.170;2022-07-29T05:59:18;18.50;99.90
5358;DHT22;2702;51.014;7.170;2022-07-29T06:01:44;18.60;99.90
5358;DHT22;2702;51.014;7.170;2022-07-29T06:04:10;18.70;99.90
5358;DHT22;2702;51.014;7.170;2022-07-29T06:06:36;18.80;99.90
5358;DHT22;2702;51.014;7.170;2022-07-29T06:09:02;18.90;99.90
5358;DHT22;2702;51.014;7.170;2022-07-29T06:11:28;19.00;99.90
5358;DHT22;2702;51.014;7.170;2022-07-29T06:13:54;19.10;99.90
5358;DHT22;2702;51.014;7.170;2022-07-29T06:16:20;19.20;99.90
5358;DHT22;2702;51.014;7.170;2022-07-29T06:18:46;19.30;99.90
5358;DHT22;2702;51.014;7.170;2022-07-29T06:21:12;19.40;99.90
5358;DHT22;2702;51.014;7.170;2022-07-29T06:23:38;19.30;99.90
5358;DHT22;2702;51.014;7.170;2022-07-29T06:26:05;19.40;99.90
5358;DHT22;2702;51.014;7.170;2022-07-29T06:28:32;19.60;99.90
5358;DHT22;2702;51.014;7.170;2022-07-29T06:30:59;19.70;99.90
5358;DHT22;2702;51.014;7.170;2022-07-29T06:33:25;19.90;99.90
5358;DHT22;2702;51.014;7.170;2022-07-29T06:35:51;20.00;99.90
5358;DHT22;2702;51.014;7.170;2022-07-29T06:38:17;20.10;99.90
5358;DHT22;2702;51.014;7.170;2022-07-29T06:40:46;20.20;99.90
5358;DHT22;2702;51.014;7.170;2022-07-29T06:43:44;20.40;99.90
5358;DHT22;2702;51.014;7.170;2022-07-29T06:46:15;20.60;99.90
5358;DHT22;2702;51.014;7.170;2022-07-29T06:48:46;20.70;99.90
5358;DHT22;2702;51.014;7.170;2022-07-29T06:51:13;20.70;99.90
5358;DHT22;2702;51.014;7.170;2022-07-29T06:53:39;20.80;99.90
5358;DHT22;2702;51.014;7.170;2022-07-29T06:56:07;20.90;99.90
5358;DHT22;2702;51.014;7.170;2022-07-29T06:58:38;20.90;99.90
5358;DHT22;2702;51.014;7.170;2022-07-29T07:01:05;21.00;99.90
5358;DHT22;2702;51.014;7.170;2022-07-29T07:03:31;21.00;99.90
5358;DHT22;2702;51.014;7.170;2022-07-29T07:05:58;21.00;99.90
5358;DHT22;2702;51.014;7.170;2022-07-29T07:08:24;21.10;99.90
5358;DHT22;2702;51.014;7.170;2022-07-29T07:10:51;21.20;99.90
5358;DHT22;2702;51.014;7.170;2022-07-29T07:13:17;21.20;99.90
5358;DHT22;2702;51.014;7.170;2022-07-29T07:15:44;21.30;99.90
5358;DHT22;2702;51.014;7.170;2022-07-29T07:18:11;21.30;99.90
5358;DHT22;2702;51.014;7.170;2022-07-29T07:20:37;21.40;99.90
5358;DHT22;2702;51.014;7.170;2022-07-29T07:23:03;21.30;99.90
5358;DHT22;2702;51.014;7.170;2022-07-29T07:25:30;21.40;99.90
5358;DHT22;2702;51.014;7.170;2022-07-29T07:27:56;21.30;99.90
5358;DHT22;2702;51.014;7.170;2022-07-29T07:30:22;21.40;99.90
5358;DHT22;2702;51.014;7.170;2022-07-29T07:32:48;21.50;99.90
5358;DHT22;2702;51.014;7.170;2022-07-29T07:35:14;21.40;99.90
5358;DHT22;2702;51.014;7.170;2022-07-29T07:37:40;21.50;99.90
5358;DHT22;2702;51.014;7.170;2022-07-29T07:40:08;21.50;99.90
5358;DHT22;2702;51.014;7.170;2022-07-29T07:42:34;21.50;99.90
5358;DHT22;2702;51.014;7.170;2022-07-29T07:45:00;21.50;99.90
5358;DHT22;2702;51.014;7.170;2022-07-29T07:47:26;21.60;99.90
5358;DHT22;2702;51.014;7.170;2022-07-29T07:49:52;21.80;99.90
5358;DHT22;2702;51.014;7.170;2022-07-29T07:52:20;21.90;99.90
5358;DHT22;2702;51.014;7.170;2022-07-29T07:54:47;22.10;99.90
5358;DHT22;2702;51.014;7.170;2022-07-29T07:57:15;22.10;99.90
5358;DHT22;2702;51.014;7.170;2022-07-29T07:59:41;22.30;99.90
5358;DHT22;2702;51.014;7.170;2022-07-29T08:02:09;22.40;99.90
5358;DHT22;2702;51.014;7.170;2022-07-29T08:04:35;22.40;99.90
5358;DHT22;2702;51.014;7.170;2022-07-29T08:07:01;22.40;99.90
5358;DHT22;2702;51.014;7.170;2022-07-29T08:09:28;22.50;99.90
5358;DHT22;2702;51.014;7.170;2022-07-29T08:11:55;22.60;99.90
5358;DHT22;2702;51.014;7.170;2022-07-29T08:14:21;22.70;99.90
5358;DHT22;2702;51.014;7.170;2022-07-29T08:16:47;22.80;99.90
5358;DHT22;2702;51.014;7.170;2022-07-29T08:19:13;22.80;99.90
5358;DHT22;2702;51.014;7.170;2022-07-29T08:21:39;22.80;99.90
5358;DHT22;2702;51.014;7.170;2022-07-29T08:24:06;22.90;99.90
5358;DHT22;2702;51.014;7.170;2022-07-29T08:26:50;23.00;99.90
5358;DHT22;2702;51.014;7.170;2022-07-29T08:29:16;23.00;99.90
5358;DHT22;2702;51.014;7.170;2022-07-29T08:31:42;22.90;99.90
5358;DHT22;2702;51.014;7.170;2022-07-29T08:34:08;22.90;99.90
5358;DHT22;2702;51.014;7.170;2022-07-29T08:36:34;22.90;99.90
5358;DHT22;2702;51.014;7.170;2022-07-29T08:39:01;23.10;99.90
5358;DHT22;2702;51.014;7.170;2022-07-29T08:41:27;23.10;99.90
5358;DHT22;2702;51.014;7.170;2022-07-29T08:43:53;23.00;99.90
5358;DHT22;2702;51.014;7.170;2022-07-29T08:46:21;23.10;99.90
5358;DHT22;2702;51.014;7.170;2022-07-29T08:48:47;23.10;99.90
5358;DHT22;2702;51.014;7.170;2022-07-29T08:51:20;23.00;99.90
5358;DHT22;2702;51.014;7.170;2022-07-29T08:53:48;23.00;99.90
5358;DHT22;2702;51.014;7.170;2022-07-29T08:56:15;23.00;99.90
5358;DHT22;2702;51.014;7.170;2022-07-29T08:58:48;23.10;99.90
5358;DHT22;2702;51.014;7.170;2022-07-29T09:01:17;23.10;99.90
5358;DHT22;2702;51.014;7.170;2022-07-29T09:03:46;23.10;99.90
5358;DHT22;2702;51.014;7.170;2022-07-29T09:06:17;23.10;99.90
5358;DHT22;2702;51.014;7.170;2022-07-29T09:08:44;23.00;99.90
5358;DHT22;2702;51.014;7.170;2022-07-29T09:11:11;22.90;99.90
5358;DHT22;2702;51.014;7.170;2022-07-29T09:13:37;22.90;99.90
5358;DHT22;2702;51.014;7.170;2022-07-29T09:16:03;23.00;99.90
5358;DHT22;2702;51.014;7.170;2022-07-29T09:20:58;23.10;99.90
5358;DHT22;2702;51.014;7.170;2022-07-29T09:24:12;23.20;99.90
5358;DHT22;2702;51.014;7.170;2022-07-29T09:26:42;23.10;99.90
5358;DHT22;2702;51.014;7.170;2022-07-29T09:29:12;23.20;99.90
5358;DHT22;2702;51.014;7.170;2022-07-29T09:31:41;23.30;99.90
5358;DHT22;2702;51.014;7.170;2022-07-29T09:34:09;23.40;99.90
5358;DHT22;2702;51.014;7.170;2022-07-29T09:36:43;23.60;99.90
5358;DHT22;2702;51.014;7.170;2022-07-29T09:39:09;23.50;99.90
5358;DHT22;2702;51.014;7.170;2022-07-29T09:41:52;23.70;99.90
5358;DHT22;2702;51.014;7.170;2022-07-29T09:44:19;23.90;99.90
5358;DHT22;2702;51.014;7.170;2022-07-29T09:46:56;24.10;99.90
5358;DHT22;2702;51.014;7.170;2022-07-29T09:49:24;24.20;99.90
5358;DHT22;2702;51.014;7.170;2022-07-29T09:52:07;24.50;99.90
5358;DHT22;2702;51.014;7.170;2022-07-29T09:54:34;24.90;99.90
5358;DHT22;2702;51.014;7.170;2022-07-29T09:57:05;25.10;99.90
5358;DHT22;2702;51.014;7.170;2022-07-29T09:59:31;25.40;99.90
5358;DHT22;2702;51.014;7.170;2022-07-29T10:01:57;25.20;99.90
5358;DHT22;2702;51.014;7.170;2022-07-29T10:04:23;25.10;99.90
5358;DHT22;2702;51.014;7.170;2022-07-29T10:06:58;25.30;99.90
5358;DHT22;2702;51.014;7.170;2022-07-29T10:09:25;25.40;99.90
5358;DHT22;2702;51.014;7.170;2022-07-29T10:12:17;25.40;99.90
5358;DHT22;2702;51.014;7.170;2022-07-29T10:14:42;25.10;99.90
5358;DHT22;2702;51.014;7.170;2022-07-29T10:17:10;25.40;99.90
5358;DHT22;2702;51.014;7.170;2022-07-29T10:19:37;25.90;99.90
5358;DHT22;2702;51.014;7.170;2022-07-29T10:22:07;26.20;99.90
5358;DHT22;2702;51.014;7.170;2022-07-29T10:24:34;26.20;99.90
5358;DHT22;2702;51.014;7.170;2022-07-29T10:27:03;26.10;99.90
5358;DHT22;2702;51.014;7.170;2022-07-29T10:29:30;25.60;99.90
5358;DHT22;2702;51.014;7.170;2022-07-29T10:34:36;25.40;99.90
5358;DHT22;2702;51.014;7.170;2022-07-29T10:40:22;24.60;99.90
5358;DHT22;2702;51.014;7.170;2022-07-29T10:43:36;24.50;99.90
5358;DHT22;2702;51.014;7.170;2022-07-29T10:46:06;24.20;99.90
5358;DHT22;2702;51.014;7.170;2022-07-29T10:48:33;24.00;99.90
5358;DHT22;2702;51.014;7.170;2022-07-29T10:51:01;24.00;99.90
5358;DHT22;2702;51.014;7.170;2022-07-29T10:53:55;23.80;99.90
5358;DHT22;2702;51.014;7.170;2022-07-29T10:56:28;23.80;99.90
5358;DHT22;2702;51.014;7.170;2022-07-29T11:01:52;23.70;99.90
5358;DHT22;2702;51.014;7.170;2022-07-29T11:07:09;23.50;99.90
5358;DHT22;2702;51.014;7.170;2022-07-29T11:09:36;23.20;99.90
5358;DHT22;2702;51.014;7.170;2022-07-29T11:12:02;23.00;99.90
5358;DHT22;2702;51.014;7.170;2022-07-29T11:14:59;22.90;99.90
5358;DHT22;2702;51.014;7.170;2022-07-29T11:17:26;22.50;99.90
5358;DHT22;2702;51.014;7.170;2022-07-29T11:19:58;22.50;99.90
5358;DHT22;2702;51.014;7.170;2022-07-29T11:22:38;22.60;99.90
5358;DHT22;2702;51.014;7.170;2022-07-29T11:25:14;22.70;99.90
5358;DHT22;2702;51.014;7.170;2022-07-29T11:27:40;23.00;99.90
5358;DHT22;2702;51.014;7.170;2022-07-29T11:30:08;23.20;99.90
5358;DHT22;2702;51.014;7.170;2022-07-29T11:32:39;23.50;99.90
5358;DHT22;2702;51.014;7.170;2022-07-29T11:35:21;23.70;99.90
5358;DHT22;2702;51.014;7.170;2022-07-29T11:41:19;23.80;99.90
5358;DHT22;2702;51.014;7.170;2022-07-29T11:43:53;24.00;99.90
5358;DHT22;2702;51.014;7.170;2022-07-29T11:46:45;23.70;99.90
5358;DHT22;2702;51.014;7.170;2022-07-29T11:49:24;23.30;99.90
5358;DHT22;2702;51.014;7.170;2022-07-29T11:51:55;23.30;99.90
5358;DHT22;2702;51.014;7.170;2022-07-29T11:54:25;23.20;99.90
5358;DHT22;2702;51.014;7.170;2022-07-29T11:56:54;23.20;99.90
5358;DHT22;2702;51.014;7.170;2022-07-29T11:59:21;23.30;99.90
5358;DHT22;2702;51.014;7.170;2022-07-29T12:01:54;23.20;99.90
5358;DHT22;2702;51.014;7.170;2022-07-29T12:04:20;23.40;99.90
5358;DHT22;2702;51.014;7.170;2022-07-29T12:06:53;23.40;99.90
5358;DHT22;2702;51.014;7.170;2022-07-29T12:09:20;23.50;99.90
5358;DHT22;2702;51.014;7.170;2022-07-29T12:11:47;23.60;99.90
5358;DHT22;2702;51.014;7.170;2022-07-29T12:14:32;23.80;99.90
5358;DHT22;2702;51.014;7.170;2022-07-29T12:17:00;24.00;99.90
5358;DHT22;2702;51.014;7.170;2022-07-29T12:19:26;24.50;99.90
5358;DHT22;2702;51.014;7.170;2022-07-29T12:21:54;24.70;99.90
5358;DHT22;2702;51.014;7.170;2022-07-29T12:24:20;25.00;99.90
5358;DHT22;2702;51.014;7.170;2022-07-29T12:26:58;24.60;99.90
5358;DHT22;2702;51.014;7.170;2022-07-29T12:29:24;24.70;99.90
5358;DHT22;2702;51.014;7.170;2022-07-29T12:31:53;24.90;99.90
5358;DHT22;2702;51.014;7.170;2022-07-29T12:34:22;25.20;99.90
5358;DHT22;2702;51.014;7.170;2022-07-29T12:36:48;25.30;99.90
5358;DHT22;2702;51.014;7.170;2022-07-29T12:39:18;25.30;99.90
5358;DHT22;2702;51.014;7.170;2022-07-29T12:41:44;25.10;99.90
5358;DHT22;2702;51.014;7.170;2022-07-29T12:44:11;24.70;99.90
5358;DHT22;2702;51.014;7.170;2022-07-29T12:46:37;24.40;99.90
5358;DHT22;2702;51.014;7.170;2022-07-29T12:49:03;24.30;99.90
5358;DHT22;2702;51.014;7.170;2022-07-29T12:51:36;24.30;99.90
5358;DHT22;2702;51.014;7.170;2022-07-29T12:54:13;24.50;99.90
5358;DHT22;2702;51.014;7.170;2022-07-29T12:56:41;24.70;99.90
5358;DHT22;2702;51.014;7.170;2022-07-29T12:59:20;25.20;99.90
5358;DHT22;2702;51.014;7.170;2022-07-29T13:01:48;25.20;99.90
5358;DHT22;2702;51.014;7.170;2022-07-29T13:04:28;25.00;99.90
5358;DHT22;2702;51.014;7.170;2022-07-29T13:07:05;25.20;99.90
5358;DHT22;2702;51.014;7.170;2022-07-29T13:09:44;25.20;99.90
5358;DHT22;2702;51.014;7.170;2022-07-29T13:12:14;25.20;99.90
5358;DHT22;2702;51.014;7.170;2022-07-29T13:14:42;25.30;99.90
5358;DHT22;2702;51.014;7.170;2022-07-29T13:19:47;24.60;99.90
5358;DHT22;2702;51.014;7.170;2022-07-29T13:22:21;24.20;99.90
5358;DHT22;2702;51.014;7.170;2022-07-29T13:24:55;24.00;99.90
5358;DHT22;2702;51.014;7.170;2022-07-29T13:27:26;24.10;99.90
5358;DHT22;2702;51.014;7.170;2022-07-29T13:29:52;23.80;99.90
5358;DHT22;2702;51.014;7.170;2022-07-29T13:32:20;23.80;99.90
5358;DHT22;2702;51.014;7.170;2022-07-29T13:34:46;24.00;99.90
5358;DHT22;2702;51.014;7.170;2022-07-29T13:37:12;24.10;99.90
5358;DHT22;2702;51.014;7.170;2022-07-29T13:39:38;24.20;99.90
5358;DHT22;2702;51.014;7.170;2022-07-29T13:42:06;24.60;99.90
5358;DHT22;2702;51.014;7.170;2022-07-29T13:44:32;25.00;99.90
5358;DHT22;2702;51.014;7.170;2022-07-29T13:46:58;25.50;99.90
5358;DHT22;2702;51.014;7.170;2022-07-29T13:49:25;25.60;99.90
5358;DHT22;2702;51.014;7.170;2022-07-29T13:51:51;25.30;99.90
5358;DHT22;2702;51.014;7.170;2022-07-29T13:54:17;25.40;99.90
5358;DHT22;2702;51.014;7.170;2022-07-29T13:56:43;25.40;99.90
5358;DHT22;2702;51.014;7.170;2022-07-29T13:59:09;25.40;99.90
5358;DHT22;2702;51.014;7.170;2022-07-29T14:01:35;25.70;99.90
5358;DHT22;2702;51.014;7.170;2022-07-29T14:04:01;25.50;99.90
5358;DHT22;2702;51.014;7.170;2022-07-29T14:06:27;25.40;99.90
5358;DHT22;2702;51.014;7.170;2022-07-29T14:08:53;25.40;99.90
5358;DHT22;2702;51.014;7.170;2022-07-29T14:11:19;25.30;99.90
5358;DHT22;2702;51.014;7.170;2022-07-29T14:13:45;25.50;99.90
5358;DHT22;2702;51.014;7.170;2022-07-29T14:16:11;25.70;99.90
5358;DHT22;2702;51.014;7.170;2022-07-29T14:18:37;25.30;99.90
5358;DHT22;2702;51.014;7.170;2022-07-29T14:21:03;25.60;99.90
5358;DHT22;2702;51.014;7.170;2022-07-29T14:23:29;25.60;99.90
5358;DHT22;2702;51.014;7.170;2022-07-29T14:25:55;25.60;99.90
5358;DHT22;2702;51.014;7.170;2022-07-29T14:28:21;25.70;99.90
5358;DHT22;2702;51.014;7.170;2022-07-29T14:30:47;25.80;99.90
5358;DHT22;2702;51.014;7.170;2022-07-29T14:33:13;25.70;99.90
5358;DHT22;2702;51.014;7.170;2022-07-29T14:35:39;25.80;99.90
5358;DHT22;2702;51.014;7.170;2022-07-29T14:38:05;26.10;99.90
5358;DHT22;2702;51.014;7.170;2022-07-29T14:40:31;26.10;99.90
5358;DHT22;2702;51.014;7.170;2022-07-29T14:42:56;25.80;99.90
5358;DHT22;2702;51.014;7.170;2022-07-29T14:45:22;26.00;99.90
5358;DHT22;2702;51.014;7.170;2022-07-29T14:47:48;25.90;99.90
5358;DHT22;2702;51.014;7.170;2022-07-29T14:50:16;25.70;99.90
5358;DHT22;2702;51.014;7.170;2022-07-29T14:52:42;25.30;99.90
5358;DHT22;2702;51.014;7.170;2022-07-29T14:55:08;25.30;99.90
5358;DHT22;2702;51.014;7.170;2022-07-29T14:57:34;25.50;99.90
5358;DHT22;2702;51.014;7.170;2022-07-29T15:00:00;25.40;99.90
5358;DHT22;2702;51.014;7.170;2022-07-29T15:02:26;25.60;99.90
5358;DHT22;2702;51.014;7.170;2022-07-29T15:04:52;25.80;99.90
5358;DHT22;2702;51.014;7.170;2022-07-29T15:07:18;25.70;99.90
5358;DHT22;2702;51.014;7.170;2022-07-29T15:09:44;25.70;99.90
5358;DHT22;2702;51.014;7.170;2022-07-29T15:12:11;26.00;99.90
5358;DHT22;2702;51.014;7.170;2022-07-29T15:14:37;25.90;99.90
5358;DHT22;2702;51.014;7.170;2022-07-29T15:17:03;25.50;99.90
5358;DHT22;2702;51.014;7.170;2022-07-29T15:19:29;25.40;99.90
5358;DHT22;2702;51.014;7.170;2022-07-29T15:21:56;25.30;99.90
5358;DHT22;2702;51.014;7.170;2022-07-29T15:24:21;25.20;99.90
5358;DHT22;2702;51.014;7.170;2022-07-29T15:26:47;25.20;99.90
5358;DHT22;2702;51.014;7.170;2022-07-29T15:29:13;25.30;99.90
5358;DHT22;2702;51.014;7.170;2022-07-29T15:31:40;25.40;99.90
5358;DHT22;2702;51.014;7.170;2022-07-29T15:34:05;25.60;99.90
5358;DHT22;2702;51.014;7.170;2022-07-29T15:36:32;25.70;99.90
5358;DHT22;2702;51.014;7.170;2022-07-29T15:38:58;25.80;99.90
5358;DHT22;2702;51.014;7.170;2022-07-29T15:41:23;25.70;99.90
5358;DHT22;2702;51.014;7.170;2022-07-29T15:43:49;25.70;99.90
5358;DHT22;2702;51.014;7.170;2022-07-29T15:46:17;26.00;99.90
5358;DHT22;2702;51.014;7.170;2022-07-29T15:49:05;25.90;99.90
5358;DHT22;2702;51.014;7.170;2022-07-29T15:51:31;25.80;99.90
5358;DHT22;2702;51.014;7.170;2022-07-29T15:53:58;25.60;99.90
5358;DHT22;2702;51.014;7.170;2022-07-29T15:56:25;25.50;99.90
5358;DHT22;2702;51.014;7.170;2022-07-29T15:58:52;25.30;99.90
5358;DHT22;2702;51.014;7.170;2022-07-29T16:01:18;25.20;99.90
5358;DHT22;2702;51.014;7.170;2022-07-29T16:03:44;24.90;99.90
5358;DHT22;2702;51.014;7.170;2022-07-29T16:06:10;24.90;99.90
5358;DHT22;2702;51.014;7.170;2022-07-29T16:08:36;24.80;99.90
5358;DHT22;2702;51.014;7.170;2022-07-29T16:11:02;24.80;99.90
5358;DHT22;2702;51.014;7.170;2022-07-29T16:13:28;25.00;99.90
5358;DHT22;2702;51.014;7.170;2022-07-29T16:15:54;25.10;99.90
5358;DHT22;2702;51.014;7.170;2022-07-29T16:18:20;25.00;99.90
5358;DHT22;2702;51.014;7.170;2022-07-29T16:20:46;25.00;99.90
5358;DHT22;2702;51.014;7.170;2022-07-29T16:23:12;25.00;99.90
5358;DHT22;2702;51.014;7.170;2022-07-29T16:25:38;25.10;99.90
5358;DHT22;2702;51.014;7.170;2022-07-29T16:28:05;25.10;99.90
5358;DHT22;2702;51.014;7.170;2022-07-29T16:30:31;25.20;99.90
5358;DHT22;2702;51.014;7.170;2022-07-29T16:32:57;25.20;99.90
5358;DHT22;2702;51.014;7.170;2022-07-29T16:35:22;25.00;99.90
5358;DHT22;2702;51.014;7.170;2022-07-29T16:37:48;25.30;99.90
5358;DHT22;2702;51.014;7.170;2022-07-29T16:40:14;25.30;99.90